createdAt,value
2017-11-19T00:00:23.794Z,1003.87
2017-11-19T00:01:23.814Z,1003.86
2017-11-19T00:02:23.824Z,1003.82
2017-11-19T00:03:23.838Z,1003.79
2017-11-19T00:04:23.856Z,1003.85
2017-11-19T00:05:23.872Z,1003.83
2017-11-19T00:06:23.893Z,1003.87
2017-11-19T00:07:23.905Z,1003.83
2017-11-19T00:08:23.924Z,1003.85
2017-11-19T00:09:23.939Z,1003.82
2017-11-19T00:10:23.951Z,1003.8
2017-11-19T00:11:23.974Z,1003.77
2017-11-19T00:12:23.980Z,1003.85
2017-11-19T00:13:24.002Z,1003.78
2017-11-19T00:14:24.016Z,1003.78
2017-11-19T00:15:24.034Z,1003.74
2017-11-19T00:16:24.051Z,1003.76
2017-11-19T00:17:24.079Z,1003.79
2017-11-19T00:19:24.095Z,1003.77
2017-11-19T00:20:24.110Z,1003.81
2017-11-19T00:21:24.129Z,1003.78
2017-11-19T00:22:24.145Z,1003.78
2017-11-19T00:23:24.162Z,1003.73
2017-11-19T00:24:24.179Z,1003.75
2017-11-19T00:25:24.190Z,1003.81
2017-11-19T00:26:24.208Z,1003.85
2017-11-19T00:27:24.220Z,1003.75
2017-11-19T00:28:24.240Z,1003.74
2017-11-19T00:29:24.260Z,1003.73
2017-11-19T00:30:24.272Z,1003.75
2017-11-19T00:31:24.291Z,1003.7
2017-11-19T00:32:24.302Z,1003.76
2017-11-19T00:33:24.320Z,1003.71
2017-11-19T00:35:24.351Z,1003.69
2017-11-19T00:36:24.373Z,1003.66
2017-11-19T00:37:24.382Z,1003.63
2017-11-19T00:38:24.407Z,1003.61
2017-11-19T00:39:24.414Z,1003.63
2017-11-19T00:40:24.434Z,1003.55
2017-11-19T00:41:24.448Z,1003.69
2017-11-19T00:42:24.469Z,1003.53
2017-11-19T00:43:24.480Z,1003.57
2017-11-19T00:44:24.501Z,1003.56
2017-11-19T00:45:24.519Z,1003.47
2017-11-19T00:46:24.529Z,1003.51
2017-11-19T00:47:24.549Z,1003.5
2017-11-19T00:48:24.556Z,1003.43
2017-11-19T00:49:24.671Z,1003.43
2017-11-19T00:51:24.606Z,1003.43
2017-11-19T00:52:24.620Z,1003.35
2017-11-19T00:53:24.650Z,1003.41
2017-11-19T00:54:24.657Z,1003.4
2017-11-19T00:55:24.678Z,1003.4
2017-11-19T00:56:24.688Z,1003.38
2017-11-19T00:57:24.700Z,1003.33
2017-11-19T00:58:24.720Z,1003.36
2017-11-19T00:59:24.734Z,1003.29
2017-11-19T01:00:24.751Z,1003.37
2017-11-19T01:01:24.773Z,1003.39
2017-11-19T01:02:24.790Z,1003.36
2017-11-19T01:03:24.806Z,1003.34
2017-11-19T01:04:24.821Z,1003.31
2017-11-19T01:05:24.831Z,1003.41
2017-11-19T01:07:24.864Z,1003.32
2017-11-19T01:08:24.879Z,1003.38
2017-11-19T01:09:24.894Z,1003.36
2017-11-19T01:10:24.910Z,1003.38
2017-11-19T01:11:24.928Z,1003.33
2017-11-19T01:12:24.946Z,1003.42
2017-11-19T01:13:24.956Z,1003.37
2017-11-19T01:14:24.992Z,1003.38
2017-11-19T01:15:24.995Z,1003.26
2017-11-19T01:16:25.008Z,1003.31
2017-11-19T01:17:25.021Z,1003.22
2017-11-19T01:18:25.038Z,1003.26
2017-11-19T01:19:25.056Z,1003.26
2017-11-19T01:20:25.080Z,1003.19
2017-11-19T01:22:25.101Z,1003.2
2017-11-19T01:23:25.119Z,1003.22
2017-11-19T01:24:25.137Z,1003.27
2017-11-19T01:25:25.155Z,1003.19
2017-11-19T01:26:25.170Z,1003.2
2017-11-19T01:27:25.286Z,1003.1
2017-11-19T01:28:25.201Z,1003.1
2017-11-19T01:29:25.214Z,1003.13
2017-11-19T01:30:25.237Z,1003.07
2017-11-19T01:31:25.254Z,1003.04
2017-11-19T01:32:25.270Z,1003.1
2017-11-19T01:33:25.282Z,1003.01
2017-11-19T01:34:25.298Z,1003.06
2017-11-19T01:35:25.312Z,1003.03
2017-11-19T01:36:25.328Z,1003.05
2017-11-19T01:37:25.348Z,1003.05
2017-11-19T01:38:25.361Z,1003.04
2017-11-19T01:39:25.382Z,1002.95
2017-11-19T01:40:25.395Z,1002.99
2017-11-19T01:41:25.415Z,1002.98
2017-11-19T01:42:25.429Z,1002.95
2017-11-19T01:43:25.447Z,1002.94
2017-11-19T01:44:25.455Z,1003
2017-11-19T01:45:25.477Z,1002.93
2017-11-19T01:46:25.494Z,1002.93
2017-11-19T01:47:25.507Z,1002.94
2017-11-19T01:48:25.528Z,1002.92
2017-11-19T01:49:25.541Z,1002.85
2017-11-19T01:50:25.550Z,1002.88
2017-11-19T01:51:25.570Z,1002.85
2017-11-19T01:52:25.586Z,1002.82
2017-11-19T01:54:25.612Z,1002.81
2017-11-19T01:55:25.632Z,1002.82
2017-11-19T01:56:25.646Z,1002.78
2017-11-19T01:57:25.663Z,1002.68
2017-11-19T01:58:25.686Z,1002.69
2017-11-19T01:59:25.697Z,1002.73
2017-11-19T02:00:25.723Z,1002.65
2017-11-19T02:01:25.726Z,1002.64
2017-11-19T02:02:25.744Z,1002.61
2017-11-19T02:03:25.761Z,1002.69
2017-11-19T02:04:25.775Z,1002.59
2017-11-19T02:05:25.795Z,1002.53
2017-11-19T02:06:25.806Z,1002.57
2017-11-19T02:07:25.825Z,1002.57
2017-11-19T02:08:25.944Z,1002.51
2017-11-19T02:10:25.877Z,1002.54
2017-11-19T02:11:25.887Z,1002.55
2017-11-19T02:12:25.906Z,1002.51
2017-11-19T02:13:25.919Z,1002.57
2017-11-19T02:14:25.938Z,1002.58
2017-11-19T02:15:25.946Z,1002.53
2017-11-19T02:16:25.968Z,1002.51
2017-11-19T02:17:25.977Z,1002.46
2017-11-19T02:18:26.000Z,1002.57
2017-11-19T02:19:26.013Z,1002.61
2017-11-19T02:20:26.028Z,1002.59
2017-11-19T02:21:26.049Z,1002.54
2017-11-19T02:22:26.063Z,1002.52
2017-11-19T02:23:26.087Z,1002.59
2017-11-19T02:24:26.108Z,1002.55
2017-11-19T02:26:26.128Z,1002.53
2017-11-19T02:27:26.141Z,1002.55
2017-11-19T02:28:26.156Z,1002.55
2017-11-19T02:29:26.178Z,1002.57
2017-11-19T02:30:26.185Z,1002.52
2017-11-19T02:31:26.203Z,1002.52
2017-11-19T02:32:26.220Z,1002.43
2017-11-19T02:33:26.238Z,1002.55
2017-11-19T02:34:26.254Z,1002.5
2017-11-19T02:35:26.269Z,1002.52
2017-11-19T02:36:26.286Z,1002.5
2017-11-19T02:37:26.303Z,1002.46
2017-11-19T02:38:26.318Z,1002.45
2017-11-19T02:39:26.333Z,1002.48
2017-11-19T02:40:26.346Z,1002.39
2017-11-19T02:42:26.381Z,1002.42
2017-11-19T02:43:26.397Z,1002.4
2017-11-19T02:44:26.419Z,1002.32
2017-11-19T02:45:26.432Z,1002.35
2017-11-19T02:46:26.445Z,1002.31
2017-11-19T02:47:26.457Z,1002.32
2017-11-19T02:48:26.471Z,1002.23
2017-11-19T02:49:26.485Z,1002.31
2017-11-19T02:50:26.508Z,1002.22
2017-11-19T02:51:26.520Z,1002.13
2017-11-19T02:52:26.538Z,1002.19
2017-11-19T02:53:26.555Z,1002.2
2017-11-19T02:54:26.570Z,1002.23
2017-11-19T02:55:26.580Z,1002.22
2017-11-19T02:57:26.624Z,1002.14
2017-11-19T02:58:26.628Z,1002.08
2017-11-19T02:59:26.650Z,1002.09
2017-11-19T03:00:26.659Z,1002.04
2017-11-19T03:01:26.682Z,1002.08
2017-11-19T03:02:26.716Z,1002.15
2017-11-19T03:03:26.711Z,1002.14
2017-11-19T03:04:26.734Z,1002.16
2017-11-19T03:05:26.742Z,1002.13
2017-11-19T03:06:26.764Z,1002.17
2017-11-19T03:07:26.784Z,1002.04
2017-11-19T03:08:26.789Z,1002.03
2017-11-19T03:09:26.804Z,1002
2017-11-19T03:10:26.818Z,1002.13
2017-11-19T03:11:26.836Z,1002.07
2017-11-19T03:12:26.853Z,1002.01
2017-11-19T03:13:26.875Z,1002.07
2017-11-19T03:14:26.884Z,1002.07
2017-11-19T03:15:26.905Z,1002
2017-11-19T03:16:26.917Z,1001.95
2017-11-19T03:17:26.938Z,1001.94
2017-11-19T03:18:26.949Z,1001.95
2017-11-19T03:19:26.970Z,1001.87
2017-11-19T03:20:26.982Z,1002
2017-11-19T03:21:26.999Z,1001.97
2017-11-19T03:22:27.016Z,1002.06
2017-11-19T03:23:27.028Z,1001.97
2017-11-19T03:24:27.037Z,1001.95
2017-11-19T03:25:27.058Z,1001.87
2017-11-19T03:26:27.070Z,1001.99
2017-11-19T03:27:27.085Z,1001.94
2017-11-19T03:29:27.126Z,1001.94
2017-11-19T03:30:27.132Z,1001.98
2017-11-19T03:31:27.150Z,1002.07
2017-11-19T03:32:27.172Z,1002.03
2017-11-19T03:33:27.179Z,1001.95
2017-11-19T03:34:27.196Z,1002.01
2017-11-19T03:35:27.210Z,1002
2017-11-19T03:36:27.230Z,1001.93
2017-11-19T03:37:27.251Z,1002.01
2017-11-19T03:38:27.266Z,1001.93
2017-11-19T03:39:27.282Z,1001.9
2017-11-19T03:40:27.297Z,1002.04
2017-11-19T03:41:27.340Z,1002
2017-11-19T03:42:27.325Z,1001.91
2017-11-19T03:43:27.343Z,1001.95
2017-11-19T03:45:27.373Z,1001.91
2017-11-19T03:46:27.388Z,1001.95
2017-11-19T03:47:27.415Z,1001.95
2017-11-19T03:48:27.413Z,1001.91
2017-11-19T03:49:27.428Z,1001.86
2017-11-19T03:50:27.444Z,1001.86
2017-11-19T03:51:27.462Z,1001.97
2017-11-19T03:52:27.482Z,1001.93
2017-11-19T03:53:27.501Z,1001.98
2017-11-19T03:54:27.512Z,1001.91
2017-11-19T03:55:27.529Z,1001.91
2017-11-19T03:56:27.544Z,1001.91
2017-11-19T03:57:27.553Z,1001.89
2017-11-19T03:58:27.572Z,1001.84
2017-11-19T03:59:27.596Z,1001.79
2017-11-19T04:01:27.622Z,1001.78
2017-11-19T04:02:27.637Z,1001.79
2017-11-19T04:03:27.650Z,1001.84
2017-11-19T04:04:27.668Z,1001.83
2017-11-19T04:05:27.684Z,1001.88
2017-11-19T04:06:27.701Z,1001.83
2017-11-19T04:07:27.718Z,1001.77
2017-11-19T04:08:27.732Z,1001.77
2017-11-19T04:09:27.742Z,1001.81
2017-11-19T04:10:27.759Z,1001.75
2017-11-19T04:11:27.784Z,1001.83
2017-11-19T04:12:27.793Z,1001.76
2017-11-19T04:13:27.810Z,1001.74
2017-11-19T04:14:27.821Z,1001.68
2017-11-19T04:15:27.835Z,1001.65
2017-11-19T04:17:27.875Z,1001.64
2017-11-19T04:18:27.893Z,1001.63
2017-11-19T04:19:27.898Z,1001.6
2017-11-19T04:20:27.916Z,1001.58
2017-11-19T04:21:27.935Z,1001.66
2017-11-19T04:22:27.951Z,1001.65
2017-11-19T04:23:27.971Z,1001.57
2017-11-19T04:24:27.982Z,1001.62
2017-11-19T04:25:27.996Z,1001.58
2017-11-19T04:26:28.015Z,1001.63
2017-11-19T04:27:28.026Z,1001.57
2017-11-19T04:28:28.040Z,1001.58
2017-11-19T04:29:28.058Z,1001.58
2017-11-19T04:30:28.089Z,1001.57
2017-11-19T04:32:28.105Z,1001.52
2017-11-19T04:33:28.127Z,1001.45
2017-11-19T04:34:28.140Z,1001.48
2017-11-19T04:35:28.153Z,1001.46
2017-11-19T04:36:28.177Z,1001.5
2017-11-19T04:37:28.186Z,1001.41
2017-11-19T04:38:28.203Z,1001.46
2017-11-19T04:39:28.217Z,1001.53
2017-11-19T04:40:28.231Z,1001.49
2017-11-19T04:41:28.264Z,1001.41
2017-11-19T04:42:28.269Z,1001.35
2017-11-19T04:43:28.274Z,1001.35
2017-11-19T04:44:28.296Z,1001.38
2017-11-19T04:45:28.304Z,1001.31
2017-11-19T04:46:28.325Z,1001.33
2017-11-19T04:47:28.343Z,1001.32
2017-11-19T04:48:28.359Z,1001.32
2017-11-19T04:49:28.375Z,1001.27
2017-11-19T04:50:28.388Z,1001.34
2017-11-19T04:51:28.401Z,1001.29
2017-11-19T04:52:28.423Z,1001.2
2017-11-19T04:53:28.430Z,1001.24
2017-11-19T04:54:28.446Z,1001.26
2017-11-19T04:55:28.463Z,1001.23
2017-11-19T04:56:28.518Z,1001.27
2017-11-19T04:57:28.492Z,1001.2
2017-11-19T04:58:28.514Z,1001.25
2017-11-19T04:59:28.527Z,1001.22
2017-11-19T05:00:28.541Z,1001.18
2017-11-19T05:01:28.558Z,1001.16
2017-11-19T05:02:28.577Z,1001.16
2017-11-19T05:04:28.603Z,1001.24
2017-11-19T05:05:28.617Z,1001.2
2017-11-19T05:06:28.641Z,1001.19
2017-11-19T05:07:28.652Z,1001.21
2017-11-19T05:08:28.665Z,1001.21
2017-11-19T05:09:28.683Z,1001.18
2017-11-19T05:10:28.695Z,1001.21
2017-11-19T05:11:28.717Z,1001.12
2017-11-19T05:12:28.727Z,1001.14
2017-11-19T05:13:28.745Z,1001.14
2017-11-19T05:14:28.759Z,1001.11
2017-11-19T05:15:28.774Z,1001.09
2017-11-19T05:16:28.786Z,1001.05
2017-11-19T05:17:28.808Z,1001.07
2017-11-19T05:18:28.822Z,1001.06
2017-11-19T05:20:28.856Z,1000.99
2017-11-19T05:21:28.875Z,1001.01
2017-11-19T05:22:28.884Z,1000.97
2017-11-19T05:23:28.904Z,1000.97
2017-11-19T05:24:28.914Z,1000.94
2017-11-19T05:25:28.928Z,1000.94
2017-11-19T05:26:28.945Z,1000.93
2017-11-19T05:27:28.962Z,1000.91
2017-11-19T05:28:28.972Z,1000.93
2017-11-19T05:29:28.998Z,1000.88
2017-11-19T05:30:29.014Z,1000.9
2017-11-19T05:31:29.019Z,1000.94
2017-11-19T05:32:29.037Z,1000.89
2017-11-19T05:33:29.052Z,1000.92
2017-11-19T05:34:29.069Z,1000.87
2017-11-19T05:36:29.096Z,1000.85
2017-11-19T05:37:29.117Z,1000.78
2017-11-19T05:38:29.138Z,1000.93
2017-11-19T05:39:29.143Z,1000.87
2017-11-19T05:40:29.161Z,1000.79
2017-11-19T05:41:29.179Z,1000.77
2017-11-19T05:42:29.196Z,1000.7
2017-11-19T05:43:29.215Z,1000.74
2017-11-19T05:44:29.232Z,1000.71
2017-11-19T05:45:29.246Z,1000.78
2017-11-19T05:46:29.261Z,1000.72
2017-11-19T05:47:29.275Z,1000.77
2017-11-19T05:48:29.289Z,1000.76
2017-11-19T05:49:29.305Z,1000.79
2017-11-19T05:50:29.332Z,1000.74
2017-11-19T05:52:29.351Z,1000.87
2017-11-19T05:53:29.362Z,1000.81
2017-11-19T05:54:29.386Z,1000.85
2017-11-19T05:55:29.395Z,1000.89
2017-11-19T05:56:29.409Z,1000.85
2017-11-19T05:57:29.426Z,1000.92
2017-11-19T05:58:29.448Z,1000.85
2017-11-19T05:59:29.466Z,1000.8
2017-11-19T06:00:29.471Z,1000.81
2017-11-19T06:01:29.491Z,1000.85
2017-11-19T06:02:29.506Z,1000.85
2017-11-19T06:03:29.516Z,1000.88
2017-11-19T06:04:29.544Z,1000.79
2017-11-19T06:05:29.556Z,1000.8
2017-11-19T06:07:29.585Z,1000.86
2017-11-19T06:08:29.600Z,1000.9
2017-11-19T06:09:29.616Z,1000.82
2017-11-19T06:10:29.733Z,1000.91
2017-11-19T06:11:29.651Z,1000.93
2017-11-19T06:12:29.660Z,1000.86
2017-11-19T06:13:29.680Z,1000.9
2017-11-19T06:14:29.696Z,1000.82
2017-11-19T06:15:29.709Z,1000.84
2017-11-19T06:16:29.726Z,1000.76
2017-11-19T06:17:29.743Z,1000.75
2017-11-19T06:18:29.754Z,1000.79
2017-11-19T06:19:29.772Z,1000.81
2017-11-19T06:20:29.786Z,1000.81
2017-11-19T06:21:29.802Z,1000.79
2017-11-19T06:22:29.820Z,1000.85
2017-11-19T06:23:29.833Z,1000.72
2017-11-19T06:24:29.851Z,1000.75
2017-11-19T06:25:29.868Z,1000.78
2017-11-19T06:26:29.881Z,1000.69
2017-11-19T06:27:29.901Z,1000.74
2017-11-19T06:28:29.913Z,1000.71
2017-11-19T06:29:29.927Z,1000.82
2017-11-19T06:30:29.940Z,1000.7
2017-11-19T06:31:29.959Z,1000.74
2017-11-19T06:32:29.978Z,1000.7
2017-11-19T06:33:29.990Z,1000.7
2017-11-19T06:34:30.008Z,1000.68
2017-11-19T06:35:30.017Z,1000.65
2017-11-19T06:36:30.037Z,1000.66
2017-11-19T06:37:30.052Z,1000.74
2017-11-19T06:39:30.087Z,1000.71
2017-11-19T06:40:30.099Z,1000.66
2017-11-19T06:41:30.267Z,1000.69
2017-11-19T06:42:30.133Z,1000.64
2017-11-19T06:43:30.153Z,1000.62
2017-11-19T06:44:30.158Z,1000.66
2017-11-19T06:45:30.179Z,1000.64
2017-11-19T06:46:30.196Z,1000.67
2017-11-19T06:47:30.211Z,1000.73
2017-11-19T06:48:30.256Z,1000.67
2017-11-19T06:49:30.241Z,1000.7
2017-11-19T06:50:30.257Z,1000.78
2017-11-19T06:51:30.276Z,1000.82
2017-11-19T06:52:30.291Z,1000.66
2017-11-19T06:53:30.300Z,1000.67
2017-11-19T06:55:30.331Z,1000.73
2017-11-19T06:56:30.351Z,1000.72
2017-11-19T06:57:30.373Z,1000.72
2017-11-19T06:58:30.381Z,1000.59
2017-11-19T06:59:30.396Z,1000.75
2017-11-19T07:00:30.411Z,1000.71
2017-11-19T07:01:30.425Z,1000.64
2017-11-19T07:02:30.444Z,1000.67
2017-11-19T07:03:30.461Z,1000.63
2017-11-19T07:04:30.477Z,1000.76
2017-11-19T07:05:30.502Z,1000.71
2017-11-19T07:06:30.507Z,1000.74
2017-11-19T07:07:30.526Z,1000.67
2017-11-19T07:08:30.540Z,1000.62
2017-11-19T07:09:30.559Z,1000.6
2017-11-19T07:11:30.590Z,1000.53
2017-11-19T07:12:30.604Z,1000.68
2017-11-19T07:13:30.621Z,1000.56
2017-11-19T07:14:30.632Z,1000.51
2017-11-19T07:15:30.647Z,1000.53
2017-11-19T07:16:30.662Z,1000.61
2017-11-19T07:17:30.681Z,1000.59
2017-11-19T07:18:30.700Z,1000.48
2017-11-19T07:19:30.710Z,1000.5
2017-11-19T07:20:30.731Z,1000.61
2017-11-19T07:21:30.745Z,1000.54
2017-11-19T07:22:30.755Z,1000.46
2017-11-19T07:23:30.777Z,1000.56
2017-11-19T07:24:30.791Z,1000.52
2017-11-19T07:25:30.805Z,1000.52
2017-11-19T07:27:30.835Z,1000.52
2017-11-19T07:28:30.853Z,1000.55
2017-11-19T07:29:30.883Z,1000.52
2017-11-19T07:30:30.890Z,1000.43
2017-11-19T07:31:30.902Z,1000.44
2017-11-19T07:32:30.924Z,1000.54
2017-11-19T07:33:30.933Z,1000.45
2017-11-19T07:34:30.948Z,1000.42
2017-11-19T07:35:30.966Z,1000.38
2017-11-19T07:36:30.984Z,1000.48
2017-11-19T07:37:31.003Z,1000.45
2017-11-19T07:38:31.013Z,1000.5
2017-11-19T07:39:31.131Z,1000.44
2017-11-19T07:40:31.046Z,1000.38
2017-11-19T07:42:31.078Z,1000.38
2017-11-19T07:43:31.093Z,1000.44
2017-11-19T07:44:31.114Z,1000.38
2017-11-19T07:45:31.129Z,1000.41
2017-11-19T07:46:31.145Z,1000.36
2017-11-19T07:47:31.161Z,1000.46
2017-11-19T07:48:31.175Z,1000.36
2017-11-19T07:49:31.197Z,1000.42
2017-11-19T07:50:31.211Z,1000.34
2017-11-19T07:51:31.222Z,1000.32
2017-11-19T07:52:31.241Z,1000.3
2017-11-19T07:53:31.253Z,1000.23
2017-11-19T07:54:31.274Z,1000.27
2017-11-19T07:55:31.284Z,1000.18
2017-11-19T07:56:31.303Z,1000.2
2017-11-19T07:57:31.316Z,1000.2
2017-11-19T07:58:31.338Z,1000.18
2017-11-19T07:59:31.354Z,1000.25
2017-11-19T08:00:31.371Z,1000.27
2017-11-19T08:01:31.382Z,1000.25
2017-11-19T08:02:31.448Z,1000.25
2017-11-19T08:03:31.415Z,1000.27
2017-11-19T08:04:31.438Z,1000.26
2017-11-19T08:05:31.455Z,1000.24
2017-11-19T08:06:31.563Z,1000.22
2017-11-19T08:07:31.488Z,1000.28
2017-11-19T08:08:31.498Z,1000.29
2017-11-19T08:09:31.517Z,1000.34
2017-11-19T08:10:31.533Z,1000.27
2017-11-19T08:11:31.547Z,1000.36
2017-11-19T08:12:31.558Z,1000.34
2017-11-19T08:14:31.602Z,1000.43
2017-11-19T08:15:31.618Z,1000.35
2017-11-19T08:16:31.627Z,1000.45
2017-11-19T08:17:31.648Z,1000.46
2017-11-19T08:18:31.656Z,1000.44
2017-11-19T08:19:31.681Z,1000.52
2017-11-19T08:20:31.695Z,1000.57
2017-11-19T08:21:31.710Z,1000.58
2017-11-19T08:22:31.723Z,1000.46
2017-11-19T08:23:31.741Z,1000.44
2017-11-19T08:24:31.763Z,1000.48
2017-11-19T08:25:31.776Z,1000.59
2017-11-19T08:26:31.796Z,1000.46
2017-11-19T08:27:31.808Z,1000.53
2017-11-19T08:28:31.822Z,1000.4
2017-11-19T08:30:31.862Z,1000.43
2017-11-19T08:31:31.874Z,1000.4
2017-11-19T08:32:31.896Z,1000.37
2017-11-19T08:33:31.912Z,1000.35
2017-11-19T08:34:31.925Z,1000.37
2017-11-19T08:35:31.945Z,1000.34
2017-11-19T08:36:31.960Z,1000.29
2017-11-19T08:37:31.978Z,1000.41
2017-11-19T08:38:31.993Z,1000.37
2017-11-19T08:39:32.010Z,1000.29
2017-11-19T08:40:32.026Z,1000.28
2017-11-19T08:41:32.040Z,1000.36
2017-11-19T08:42:32.063Z,1000.34
2017-11-19T08:43:32.090Z,1000.41
2017-11-19T08:44:32.097Z,1000.36
2017-11-19T08:46:32.124Z,1000.32
2017-11-19T08:47:32.143Z,1000.27
2017-11-19T08:48:32.156Z,1000.3
2017-11-19T08:49:32.173Z,1000.2
2017-11-19T08:50:32.192Z,1000.26
2017-11-19T08:51:32.210Z,1000.29
2017-11-19T08:52:32.231Z,1000.23
2017-11-19T08:53:32.239Z,1000.24
2017-11-19T08:54:32.265Z,1000.2
2017-11-19T08:55:32.271Z,1000.24
2017-11-19T08:56:32.294Z,1000.17
2017-11-19T08:57:32.305Z,1000.2
2017-11-19T08:58:32.325Z,1000.2
2017-11-19T08:59:32.340Z,1000.25
2017-11-19T09:00:32.354Z,1000.26
2017-11-19T09:02:32.394Z,1000.35
2017-11-19T09:03:32.409Z,1000.3
2017-11-19T09:04:32.425Z,1000.27
2017-11-19T09:05:32.443Z,1000.3
2017-11-19T09:06:32.454Z,1000.27
2017-11-19T09:07:32.475Z,1000.26
2017-11-19T09:08:32.495Z,1000.29
2017-11-19T09:09:32.510Z,1000.36
2017-11-19T09:10:32.532Z,1000.25
2017-11-19T09:11:32.539Z,1000.21
2017-11-19T09:12:32.563Z,1000.29
2017-11-19T09:13:32.577Z,1000.33
2017-11-19T09:14:32.588Z,1000.28
2017-11-19T09:15:32.618Z,1000.38
2017-11-19T09:17:32.648Z,1000.34
2017-11-19T09:18:32.664Z,1000.31
2017-11-19T09:19:32.676Z,1000.36
2017-11-19T09:20:32.692Z,1000.33
2017-11-19T09:21:32.706Z,1000.43
2017-11-19T09:22:32.730Z,1000.39
2017-11-19T09:23:32.747Z,1000.31
2017-11-19T09:24:32.765Z,1000.32
2017-11-19T09:25:32.773Z,1000.3
2017-11-19T09:26:32.789Z,1000.3
2017-11-19T09:27:32.817Z,1000.39
2017-11-19T09:28:32.830Z,1000.47
2017-11-19T09:29:32.842Z,1000.36
2017-11-19T09:30:32.857Z,1000.36
2017-11-19T09:31:32.876Z,1000.5
2017-11-19T09:32:32.895Z,1000.38
2017-11-19T09:33:32.913Z,1000.35
2017-11-19T09:34:32.934Z,1000.43
2017-11-19T09:35:32.950Z,1000.36
2017-11-19T09:36:32.959Z,1000.39
2017-11-19T09:37:32.984Z,1000.23
2017-11-19T09:38:32.996Z,1000.34
2017-11-19T09:39:33.012Z,1000.38
2017-11-19T09:40:33.030Z,1000.29
2017-11-19T09:41:33.045Z,1000.15
2017-11-19T09:42:33.066Z,1000.39
2017-11-19T09:43:33.074Z,1000.32
2017-11-19T09:44:33.097Z,1000.27
2017-11-19T09:45:33.111Z,1000.33
2017-11-19T09:46:33.136Z,1000.3
2017-11-19T09:47:33.144Z,1000.28
2017-11-19T09:49:33.173Z,1000.18
2017-11-19T09:50:33.193Z,1000.36
2017-11-19T09:51:33.207Z,1000.11
2017-11-19T09:52:33.230Z,1000.16
2017-11-19T09:53:33.246Z,1000.16
2017-11-19T09:54:33.259Z,1000.13
2017-11-19T09:55:33.277Z,1000.19
2017-11-19T09:56:33.298Z,1000.07
2017-11-19T09:57:33.309Z,1000.15
2017-11-19T09:58:33.322Z,1000.04
2017-11-19T09:59:33.344Z,1000.11
2017-11-19T10:00:33.364Z,1000.1
2017-11-19T10:01:33.380Z,1000.18
2017-11-19T10:02:33.401Z,1000.12
2017-11-19T10:03:33.413Z,1000.15
2017-11-19T10:05:33.448Z,1000.18
2017-11-19T10:06:33.466Z,999.94
2017-11-19T10:07:33.480Z,1000.06
2017-11-19T10:08:33.491Z,999.94
2017-11-19T10:09:33.509Z,1000.11
2017-11-19T10:10:33.531Z,1000.06
2017-11-19T10:11:33.547Z,1000.32
2017-11-19T10:12:33.567Z,1000.18
2017-11-19T10:13:33.582Z,1000.06
2017-11-19T10:14:33.594Z,1000.11
2017-11-19T10:15:33.608Z,1000.13
2017-11-19T10:16:33.638Z,1000.03
2017-11-19T10:17:33.645Z,1000.13
2017-11-19T10:18:33.670Z,999.98
2017-11-19T10:19:33.675Z,1000.11
2017-11-19T10:21:33.718Z,1000.08
2017-11-19T10:22:33.730Z,999.84
2017-11-19T10:23:33.749Z,999.89
2017-11-19T10:24:33.763Z,999.97
2017-11-19T10:25:33.792Z,1000.05
2017-11-19T10:26:33.797Z,1000.15
2017-11-19T10:27:33.816Z,1000.08
2017-11-19T10:28:33.825Z,1000.07
2017-11-19T10:29:33.845Z,1000.13
2017-11-19T10:30:33.860Z,999.99
2017-11-19T10:31:33.881Z,1000.11
2017-11-19T10:32:33.893Z,1000.13
2017-11-19T10:33:33.911Z,1000.12
2017-11-19T10:34:33.930Z,999.98
2017-11-19T10:35:33.946Z,1000.1
2017-11-19T10:37:33.981Z,999.9
2017-11-19T10:38:34.001Z,1000.12
2017-11-19T10:39:34.016Z,999.94
2017-11-19T10:40:34.029Z,999.86
2017-11-19T10:41:34.044Z,999.9
2017-11-19T10:42:34.065Z,999.9
2017-11-19T10:43:34.080Z,999.91
2017-11-19T10:44:34.103Z,999.79
2017-11-19T10:45:34.128Z,999.88
2017-11-19T10:46:34.128Z,999.86
2017-11-19T10:47:34.149Z,999.89
2017-11-19T10:48:34.166Z,999.9
2017-11-19T10:49:34.184Z,999.85
2017-11-19T10:50:34.204Z,999.85
2017-11-19T10:52:34.232Z,999.77
2017-11-19T10:53:34.246Z,999.87
2017-11-19T10:54:34.268Z,999.87
2017-11-19T10:55:34.286Z,999.84
2017-11-19T10:56:34.305Z,999.79
2017-11-19T10:57:34.317Z,999.76
2017-11-19T10:58:34.339Z,999.81
2017-11-19T10:59:34.348Z,999.77
2017-11-19T11:00:34.367Z,999.78
2017-11-19T11:01:34.388Z,999.88
2017-11-19T11:02:34.405Z,999.76
2017-11-19T11:03:34.426Z,999.79
2017-11-19T11:04:34.441Z,999.75
2017-11-19T11:05:34.449Z,999.66
2017-11-19T11:06:34.468Z,999.77
2017-11-19T11:07:34.488Z,999.83
2017-11-19T11:08:34.505Z,999.8
2017-11-19T11:09:34.521Z,999.91
2017-11-19T11:10:34.538Z,999.78
2017-11-19T11:11:34.553Z,999.74
2017-11-19T11:12:34.573Z,999.77
2017-11-19T11:13:34.594Z,999.8
2017-11-19T11:14:34.608Z,999.56
2017-11-19T11:15:34.624Z,999.96
2017-11-19T11:16:34.647Z,999.91
2017-11-19T11:17:34.663Z,1000
2017-11-19T11:18:34.678Z,1000.03
2017-11-19T11:19:34.697Z,999.96
2017-11-19T11:20:34.710Z,999.95
2017-11-19T11:21:34.735Z,999.98
2017-11-19T11:22:34.741Z,999.94
2017-11-19T11:24:34.780Z,999.92
2017-11-19T11:25:34.795Z,999.79
2017-11-19T11:26:34.811Z,999.89
2017-11-19T11:27:34.828Z,999.84
2017-11-19T11:28:34.848Z,999.81
2017-11-19T11:29:34.861Z,999.87
2017-11-19T11:30:34.886Z,999.78
2017-11-19T11:31:34.899Z,999.9
2017-11-19T11:32:34.916Z,999.67
2017-11-19T11:33:34.931Z,999.83
2017-11-19T11:34:34.948Z,999.78
2017-11-19T11:35:34.971Z,999.71
2017-11-19T11:36:34.986Z,999.72
2017-11-19T11:37:35.003Z,999.76
2017-11-19T11:38:35.021Z,999.71
2017-11-19T11:40:35.056Z,999.88
2017-11-19T11:41:35.068Z,999.78
2017-11-19T11:42:35.084Z,999.78
2017-11-19T11:43:35.106Z,999.69
2017-11-19T11:44:35.121Z,999.67
2017-11-19T11:45:35.137Z,999.73
2017-11-19T11:46:35.166Z,999.7
2017-11-19T11:47:35.174Z,999.7
2017-11-19T11:48:35.191Z,999.57
2017-11-19T11:49:35.205Z,999.58
2017-11-19T11:50:35.223Z,999.64
2017-11-19T11:51:35.241Z,999.71
2017-11-19T11:52:35.260Z,999.64
2017-11-19T11:53:35.274Z,999.76
2017-11-19T11:54:35.289Z,999.6
2017-11-19T11:56:35.324Z,999.73
2017-11-19T11:57:35.350Z,999.63
2017-11-19T11:58:35.363Z,999.7
2017-11-19T11:59:35.378Z,999.64
2017-11-19T12:00:35.393Z,999.63
2017-11-19T12:01:35.416Z,999.7
2017-11-19T12:02:35.434Z,999.69
2017-11-19T12:03:35.449Z,999.66
2017-11-19T12:04:35.471Z,999.69
2017-11-19T12:05:35.491Z,999.77
2017-11-19T12:06:35.497Z,999.73
2017-11-19T12:07:35.522Z,999.72
2017-11-19T12:08:35.539Z,999.76
2017-11-19T12:09:35.554Z,999.8
2017-11-19T12:10:35.568Z,999.73
2017-11-19T12:12:35.604Z,999.7
2017-11-19T12:13:35.623Z,999.71
2017-11-19T12:14:35.640Z,999.64
2017-11-19T12:15:35.705Z,999.6
2017-11-19T12:16:35.676Z,999.67
2017-11-19T12:17:35.692Z,999.58
2017-11-19T12:18:35.709Z,999.61
2017-11-19T12:19:35.722Z,999.72
2017-11-19T12:20:35.746Z,999.52
2017-11-19T12:21:35.762Z,999.75
2017-11-19T12:22:35.781Z,999.66
2017-11-19T12:23:35.795Z,999.7
2017-11-19T12:24:35.812Z,999.6
2017-11-19T12:25:35.838Z,999.82
2017-11-19T12:27:35.875Z,999.73
2017-11-19T12:28:35.882Z,999.71
2017-11-19T12:29:35.896Z,999.8
2017-11-19T12:30:35.919Z,999.73
2017-11-19T12:31:35.936Z,999.68
2017-11-19T12:32:35.960Z,999.76
2017-11-19T12:33:35.972Z,999.7
2017-11-19T12:34:35.988Z,999.72
2017-11-19T12:35:36.006Z,999.74
2017-11-19T12:36:36.021Z,999.75
2017-11-19T12:37:36.043Z,999.83
2017-11-19T12:38:36.053Z,999.83
2017-11-19T12:39:36.071Z,999.88
2017-11-19T12:40:36.087Z,999.93
2017-11-19T12:41:36.110Z,999.82
2017-11-19T12:42:36.131Z,999.75
2017-11-19T12:43:36.141Z,999.82
2017-11-19T12:44:36.162Z,999.63
2017-11-19T12:45:36.181Z,999.78
2017-11-19T12:46:36.199Z,999.77
2017-11-19T12:47:36.210Z,999.69
2017-11-19T12:48:36.229Z,999.72
2017-11-19T12:49:36.251Z,999.72
2017-11-19T12:50:36.269Z,999.68
2017-11-19T12:51:36.285Z,999.68
2017-11-19T12:52:36.298Z,999.67